createdAt,value
2022-11-10T00:01:33.602Z,90.92
2022-11-10T00:04:05.242Z,90.77
2022-11-10T00:06:37.245Z,90.86
2022-11-10T00:09:09.223Z,90.72
2022-11-10T00:11:41.383Z,90.87
2022-11-10T00:14:31.359Z,91.19
2022-11-10T00:17:04.749Z,91.46
2022-11-10T00:19:37.978Z,91.75
2022-11-10T00:22:09.664Z,91.63
2022-11-10T00:24:41.456Z,91.57
2022-11-10T00:27:14.824Z,91.71
2022-11-10T00:29:46.728Z,91.54
2022-11-10T00:32:18.694Z,91.92
2022-11-10T00:34:50.639Z,91.89
2022-11-10T00:37:22.909Z,92.14
2022-11-10T00:39:54.528Z,92.18
2022-11-10T00:42:26.169Z,92.24
2022-11-10T00:44:57.919Z,92.40
2022-11-10T00:47:29.687Z,92.13
2022-11-10T00:50:01.362Z,92.26
2022-11-10T00:52:33.226Z,92.36
2022-11-10T00:55:05.304Z,92.27
2022-11-10T00:57:37.213Z,92.39
2022-11-10T01:00:11.838Z,92.29
2022-11-10T01:02:44.975Z,92.34
2022-11-10T01:05:16.965Z,92.46
2022-11-10T01:07:48.744Z,92.45
2022-11-10T01:10:20.742Z,92.58
2022-11-10T01:12:52.791Z,92.17
2022-11-10T01:15:27.815Z,92.22
2022-11-10T01:18:00.321Z,92.42
2022-11-10T01:20:32.235Z,92.19
2022-11-10T01:23:04.827Z,92.09
2022-11-10T01:25:36.535Z,92.10
2022-11-10T01:28:08.379Z,92.00
2022-11-10T01:30:40.337Z,91.73
2022-11-10T01:33:12.157Z,91.85
2022-11-10T01:35:43.991Z,91.77
2022-11-10T01:38:15.935Z,91.86
2022-11-10T01:40:47.752Z,91.85
2022-11-10T01:43:20.183Z,91.70
2022-11-10T01:45:56.376Z,91.94
2022-11-10T01:48:33.349Z,91.79
2022-11-10T01:51:09.930Z,91.85
2022-11-10T01:53:45.368Z,91.99
2022-11-10T01:56:17.888Z,92.12
2022-11-10T01:58:52.744Z,92.07
2022-11-10T02:01:25.283Z,92.00
2022-11-10T02:03:59.764Z,92.04
2022-11-10T02:06:35.144Z,91.92
2022-11-10T02:09:07.680Z,91.90
2022-11-10T02:11:40.773Z,92.19
2022-11-10T02:14:12.783Z,92.01
2022-11-10T02:16:44.810Z,92.25
2022-11-10T02:19:22.758Z,92.39
2022-11-10T02:21:54.438Z,92.07
2022-11-10T02:24:26.757Z,92.11
2022-11-10T02:26:59.116Z,91.90
2022-11-10T02:29:30.964Z,92.52
2022-11-10T02:32:02.645Z,92.23
2022-11-10T02:34:34.476Z,92.20
2022-11-10T02:37:06.173Z,92.32
2022-11-10T02:39:37.995Z,92.47
2022-11-10T02:42:10.553Z,92.55
2022-11-10T02:44:43.140Z,92.31
2022-11-10T02:47:15.167Z,92.30
2022-11-10T02:49:47.172Z,92.28
2022-11-10T02:52:18.795Z,92.21
2022-11-10T02:54:50.610Z,92.23
2022-11-10T02:57:22.247Z,92.27
2022-11-10T02:59:54.507Z,92.10
2022-11-10T03:02:31.982Z,92.04
2022-11-10T03:05:04.713Z,92.23
2022-11-10T03:07:36.631Z,92.14
2022-11-10T03:10:10.545Z,92.14
2022-11-10T03:12:42.265Z,91.96
2022-11-10T03:15:14.728Z,92.08
2022-11-10T03:17:46.508Z,91.77
2022-11-10T03:20:19.260Z,91.72
2022-11-10T03:22:51.229Z,91.66
2022-11-10T03:25:23.040Z,91.83
2022-11-10T03:27:55.053Z,91.79
2022-11-10T03:30:27.514Z,92.05
2022-11-10T03:32:59.408Z,92.05
2022-11-10T03:35:31.276Z,91.79
2022-11-10T03:38:03.101Z,91.83
2022-11-10T03:40:56.939Z,91.71
2022-11-10T03:43:26.920Z,91.89
2022-11-10T03:45:58.757Z,91.77
2022-11-10T03:48:30.644Z,91.83
2022-11-10T03:51:03.157Z,91.82
2022-11-10T03:53:35.112Z,92.02
2022-11-10T03:56:08.276Z,91.84
2022-11-10T03:58:39.915Z,92.06
2022-11-10T04:01:11.749Z,92.35
2022-11-10T04:03:47.452Z,92.08
2022-11-10T04:06:39.926Z,92.34
2022-11-10T04:09:11.960Z,92.03
2022-11-10T04:12:01.435Z,92.24
2022-11-10T04:15:02.889Z,92.18
2022-11-10T04:17:34.789Z,92.05
2022-11-10T04:20:08.301Z,92.16
2022-11-10T04:22:58.287Z,92.11
2022-11-10T04:25:31.542Z,92.27
2022-11-10T04:28:03.452Z,92.46
2022-11-10T04:30:35.202Z,92.48
2022-11-10T04:33:08.612Z,92.53
2022-11-10T04:35:40.366Z,92.52
2022-11-10T04:38:12.156Z,92.33
2022-11-10T04:40:44.284Z,92.30
2022-11-10T04:43:16.262Z,92.27
2022-11-10T04:45:47.967Z,92.16
2022-11-10T04:48:19.894Z,92.29
2022-11-10T04:50:51.707Z,92.42
2022-11-10T04:53:25.733Z,92.31
2022-11-10T04:55:57.404Z,92.31
2022-11-10T04:58:29.648Z,92.53
2022-11-10T05:01:01.454Z,92.44
2022-11-10T05:03:33.319Z,92.60
2022-11-10T05:06:05.342Z,92.60
2022-11-10T05:08:37.429Z,92.67
2022-11-10T05:11:09.949Z,92.54
2022-11-10T05:13:42.198Z,92.65
2022-11-10T05:16:14.472Z,92.84
2022-11-10T05:18:46.803Z,93.09
2022-11-10T05:21:18.500Z,93.22
2022-11-10T05:23:50.389Z,93.62
2022-11-10T05:26:22.178Z,94.54
2022-11-10T05:28:53.931Z,95.06
2022-11-10T05:31:25.583Z,95.09
2022-11-10T05:33:57.872Z,95.41
2022-11-10T05:36:29.842Z,96.53
2022-11-10T05:39:02.014Z,96.79
2022-11-10T05:41:33.994Z,97.01
2022-11-10T05:44:05.778Z,96.64
2022-11-10T05:46:37.758Z,96.50
2022-11-10T05:49:09.708Z,97.28
2022-11-10T05:51:41.432Z,96.62
2022-11-10T05:54:13.798Z,96.36
2022-11-10T05:56:46.107Z,95.97
2022-11-10T05:59:18.157Z,95.77
2022-11-10T06:01:51.055Z,96.12
2022-11-10T06:04:22.901Z,96.70
2022-11-10T06:06:55.174Z,96.97
2022-11-10T06:09:27.354Z,96.92
2022-11-10T06:11:59.022Z,96.66
2022-11-10T06:14:30.851Z,96.79
2022-11-10T06:17:02.723Z,96.90
2022-11-10T06:19:34.844Z,96.84
2022-11-10T06:22:08.017Z,96.59
2022-11-10T06:24:41.232Z,96.46
2022-11-10T06:27:13.180Z,96.19
2022-11-10T06:29:45.538Z,96.09
2022-11-10T06:32:17.268Z,96.64
2022-11-10T06:34:49.335Z,96.56
2022-11-10T06:37:21.517Z,96.68
2022-11-10T06:39:53.568Z,96.52
2022-11-10T06:42:29.545Z,96.69
2022-11-10T06:45:04.212Z,96.32
2022-11-10T06:47:39.288Z,96.37
2022-11-10T06:50:12.351Z,96.22
2022-11-10T06:52:44.126Z,96.19
2022-11-10T06:55:16.607Z,96.02
2022-11-10T06:57:48.395Z,96.13
2022-11-10T07:00:22.052Z,96.27
2022-11-10T07:03:02.613Z,96.28
2022-11-10T07:05:36.825Z,96.30
2022-11-10T07:08:10.703Z,96.29
2022-11-10T07:10:42.562Z,96.31
2022-11-10T07:13:14.625Z,96.29
2022-11-10T07:15:46.431Z,96.28
2022-11-10T07:18:18.593Z,96.44
2022-11-10T07:20:50.447Z,96.46
2022-11-10T07:23:22.456Z,96.55
2022-11-10T07:25:54.471Z,96.40
2022-11-10T07:28:28.484Z,96.49
2022-11-10T07:31:00.551Z,96.45
2022-11-10T07:33:32.305Z,96.51
2022-11-10T07:36:07.421Z,96.76
2022-11-10T07:38:39.379Z,96.62
2022-11-10T07:41:11.913Z,96.62
2022-11-10T07:43:43.571Z,96.87
2022-11-10T07:46:15.515Z,96.67
2022-11-10T07:48:47.639Z,96.66
2022-11-10T07:51:19.476Z,96.69
2022-11-10T07:53:51.241Z,96.63
2022-11-10T07:56:23.451Z,96.78
2022-11-10T07:58:55.181Z,96.57
2022-11-10T08:01:28.099Z,96.64
2022-11-10T08:03:59.966Z,96.67
2022-11-10T08:06:35.993Z,96.58
2022-11-10T08:09:08.305Z,96.84
2022-11-10T08:11:41.035Z,97.37
2022-11-10T08:14:12.849Z,97.45
2022-11-10T08:16:44.605Z,97.37
2022-11-10T08:19:18.037Z,97.56
2022-11-10T08:21:50.095Z,97.36
2022-11-10T08:24:22.163Z,97.19
2022-11-10T08:26:57.079Z,97.57
2022-11-10T08:29:28.982Z,97.74
2022-11-10T08:32:00.887Z,97.50
2022-11-10T08:34:32.826Z,97.79
2022-11-10T08:37:04.611Z,97.37
2022-11-10T08:39:39.341Z,97.31
2022-11-10T08:42:11.874Z,97.49
2022-11-10T08:44:43.635Z,97.89
2022-11-10T08:47:15.497Z,97.85
2022-11-10T08:49:47.658Z,97.63
2022-11-10T08:52:19.596Z,98.15
2022-11-10T08:54:51.473Z,98.49
2022-11-10T08:57:23.663Z,98.08
2022-11-10T08:59:55.425Z,98.08
2022-11-10T09:02:27.223Z,98.63
2022-11-10T09:04:59.092Z,98.53
2022-11-10T09:07:31.363Z,98.49
2022-11-10T09:10:08.256Z,98.14
2022-11-10T09:12:40.720Z,98.21
2022-11-10T09:15:13.256Z,98.07
2022-11-10T09:17:45.733Z,98.28
2022-11-10T09:20:18.270Z,98.11
2022-11-10T09:22:50.054Z,98.28
2022-11-10T09:25:21.834Z,98.18
2022-11-10T09:27:53.964Z,98.11
2022-11-10T09:30:26.487Z,98.12
2022-11-10T09:33:00.465Z,98.28
2022-11-10T09:35:32.670Z,97.83
2022-11-10T09:38:04.926Z,98.11
2022-11-10T09:40:48.990Z,98.09
2022-11-10T09:43:21.387Z,98.24
2022-11-10T09:45:58.004Z,98.16
2022-11-10T09:48:32.427Z,97.78
2022-11-10T09:51:04.487Z,97.90
2022-11-10T09:53:42.598Z,97.88
2022-11-10T09:56:18.334Z,97.65
2022-11-10T09:58:50.320Z,97.75
2022-11-10T10:01:31.650Z,97.67
2022-11-10T10:04:09.929Z,97.46
2022-11-10T10:07:09.713Z,97.60
2022-11-10T10:09:44.403Z,97.27
2022-11-10T10:12:24.916Z,97.67
2022-11-10T10:15:12.318Z,97.63
2022-11-10T10:17:52.254Z,97.57
2022-11-10T10:20:29.480Z,97.69
2022-11-10T10:23:10.973Z,97.63
2022-11-10T10:25:44.761Z,97.31
2022-11-10T10:28:21.432Z,97.44
2022-11-10T10:30:54.345Z,97.35
2022-11-10T10:33:26.409Z,97.27
2022-11-10T10:35:59.070Z,97.41
2022-11-10T10:38:34.828Z,97.48
2022-11-10T10:41:18.388Z,97.41
2022-11-10T10:43:56.196Z,97.42
2022-11-10T10:46:32.897Z,97.22
2022-11-10T10:49:31.727Z,96.92
2022-11-10T10:52:13.104Z,96.64
2022-11-10T10:54:44.845Z,96.63
2022-11-10T10:57:25.812Z,96.41
2022-11-10T11:00:17.382Z,96.15
2022-11-10T11:03:04.749Z,95.74
2022-11-10T11:05:36.971Z,95.41
2022-11-10T11:08:25.678Z,95.02
2022-11-10T11:10:57.577Z,95.03
2022-11-10T11:13:30.683Z,94.99
2022-11-10T11:16:04.839Z,95.08
2022-11-10T11:18:39.920Z,94.44
2022-11-10T11:21:25.278Z,94.08
2022-11-10T11:24:18.482Z,93.91
2022-11-10T11:26:57.417Z,93.87
2022-11-10T11:29:47.375Z,93.88
2022-11-10T11:32:29.357Z,93.82
2022-11-10T11:35:28.472Z,93.87
2022-11-10T11:38:07.325Z,93.12
2022-11-10T11:40:47.023Z,92.85
2022-11-10T11:43:28.019Z,92.90
2022-11-10T11:46:04.464Z,92.21
2022-11-10T11:48:48.140Z,92.14
2022-11-10T11:51:24.674Z,92.39
2022-11-10T11:54:17.753Z,92.39
2022-11-10T11:56:51.950Z,91.95
2022-11-10T11:59:36.348Z,91.33
2022-11-10T12:02:29.997Z,91.03
2022-11-10T12:05:13.196Z,91.16
2022-11-10T12:07:52.223Z,91.35
2022-11-10T12:10:32.643Z,91.67
2022-11-10T12:13:16.910Z,91.39
2022-11-10T12:15:54.206Z,90.97
2022-11-10T12:18:34.714Z,91.20
2022-11-10T12:21:28.929Z,91.26
2022-11-10T12:24:25.086Z,89.23
2022-11-10T12:27:02.539Z,88.53
2022-11-10T12:29:37.398Z,88.84
2022-11-10T12:32:13.294Z,88.83
2022-11-10T12:34:47.634Z,88.73
2022-11-10T12:37:27.647Z,88.70
2022-11-10T12:40:05.351Z,87.85
2022-11-10T12:42:39.474Z,88.34
2022-11-10T12:45:21.274Z,88.08
2022-11-10T12:47:53.992Z,87.94
2022-11-10T12:50:44.473Z,88.22
2022-11-10T12:53:23.382Z,88.35
2022-11-10T12:56:00.961Z,88.28
2022-11-10T12:58:32.720Z,88.12
2022-11-10T13:01:06.896Z,88.15
2022-11-10T13:03:40.444Z,88.34
2022-11-10T13:06:27.608Z,88.01
2022-11-10T13:08:59.624Z,87.99
2022-11-10T13:11:34.376Z,88.11
2022-11-10T13:14:20.016Z,87.80
2022-11-10T13:16:54.661Z,87.74
2022-11-10T13:19:51.295Z,87.99
2022-11-10T13:22:37.051Z,87.80
2022-11-10T13:25:52.807Z,87.69
2022-11-10T13:28:59.090Z,87.21
2022-11-10T13:31:56.609Z,87.21
2022-11-10T13:34:48.516Z,87.06
2022-11-10T13:37:50.871Z,87.19
2022-11-10T13:40:36.235Z,87.43
2022-11-10T13:43:31.390Z,87.20
2022-11-10T13:46:07.786Z,87.05
2022-11-10T13:49:04.345Z,87.37
2022-11-10T13:51:56.403Z,87.44
2022-11-10T13:55:00.519Z,87.06
2022-11-10T13:57:39.181Z,87.04
2022-11-10T14:00:30.251Z,86.88
2022-11-10T14:03:25.653Z,86.82
2022-11-10T14:06:18.041Z,86.77
2022-11-10T14:08:56.257Z,86.93
2022-11-10T14:11:37.087Z,86.91
2022-11-10T14:14:15.572Z,87.16
2022-11-10T14:16:47.460Z,87.39
2022-11-10T14:19:36.427Z,87.28
2022-11-10T14:22:16.013Z,87.12
2022-11-10T14:24:55.251Z,87.01
2022-11-10T14:27:28.518Z,87.45
2022-11-10T14:30:12.695Z,87.39
2022-11-10T14:32:44.713Z,87.46
2022-11-10T14:35:23.790Z,87.40
2022-11-10T14:38:00.653Z,87.37
2022-11-10T14:40:33.712Z,87.40
2022-11-10T14:43:05.621Z,87.60
2022-11-10T14:45:41.518Z,87.69
2022-11-10T14:48:24.244Z,87.76
2022-11-10T14:50:57.966Z,88.04
2022-11-10T14:53:36.567Z,88.14
2022-11-10T14:56:15.112Z,88.21
2022-11-10T14:58:49.160Z,88.29
2022-11-10T15:01:33.951Z,88.17
2022-11-10T15:04:10.337Z,88.34
2022-11-10T15:06:46.826Z,88.65
2022-11-10T15:09:25.550Z,88.67
2022-11-10T15:12:09.341Z,88.69
2022-11-10T15:14:44.851Z,88.52
2022-11-10T15:17:18.762Z,88.92
2022-11-10T15:19:57.367Z,88.76
2022-11-10T15:22:37.943Z,88.95
2022-11-10T15:25:18.186Z,89.04
2022-11-10T15:28:01.712Z,89.09
2022-11-10T15:30:33.737Z,89.21
2022-11-10T15:33:11.996Z,89.49
2022-11-10T15:35:43.716Z,89.48
2022-11-10T15:38:29.736Z,89.28
2022-11-10T15:41:16.145Z,89.46
2022-11-10T15:43:48.300Z,89.64
2022-11-10T15:46:21.587Z,89.40
2022-11-10T15:48:56.087Z,89.48
2022-11-10T15:51:27.735Z,89.31
2022-11-10T15:53:59.674Z,89.72
2022-11-10T15:56:32.849Z,89.29
2022-11-10T15:59:04.969Z,89.47
2022-11-10T16:01:36.748Z,89.42
2022-11-10T16:04:11.621Z,89.85
2022-11-10T16:06:43.870Z,89.65
2022-11-10T16:09:15.837Z,89.63
2022-11-10T16:11:48.293Z,89.75
2022-11-10T16:14:20.590Z,89.84
2022-11-10T16:16:52.256Z,89.81
2022-11-10T16:19:24.204Z,89.93
2022-11-10T16:21:56.764Z,89.62
2022-11-10T16:24:29.458Z,89.61
2022-11-10T16:27:01.153Z,90.13
2022-11-10T16:29:34.848Z,89.87
2022-11-10T16:32:07.110Z,89.80
2022-11-10T16:34:39.544Z,89.53
2022-11-10T16:37:13.980Z,89.61
2022-11-10T16:39:47.199Z,89.10
2022-11-10T16:42:24.805Z,89.36
2022-11-10T16:44:56.964Z,89.23
2022-11-10T16:47:32.930Z,89.10
2022-11-10T16:50:07.668Z,89.00
2022-11-10T16:52:39.662Z,88.73
2022-11-10T16:55:15.555Z,88.70
2022-11-10T16:57:50.877Z,88.70
2022-11-10T17:00:23.763Z,88.71
2022-11-10T17:03:09.399Z,88.16
2022-11-10T17:05:42.908Z,88.12
2022-11-10T17:08:22.846Z,88.03
2022-11-10T17:10:57.145Z,88.09
2022-11-10T17:13:29.024Z,87.73
2022-11-10T17:16:05.183Z,87.63
2022-11-10T17:18:37.570Z,88.16
2022-11-10T17:21:10.694Z,87.76
2022-11-10T17:23:42.739Z,87.94
2022-11-10T17:26:16.694Z,87.61
2022-11-10T17:28:46.992Z,87.75
2022-11-10T17:31:19.270Z,87.50
2022-11-10T17:33:50.959Z,87.39
2022-11-10T17:36:25.663Z,87.81
2022-11-10T17:38:59.568Z,87.52
2022-11-10T17:41:32.287Z,87.61
2022-11-10T17:44:04.204Z,87.47
2022-11-10T17:46:36.886Z,87.59
2022-11-10T17:49:08.962Z,87.61
2022-11-10T17:51:41.929Z,87.86
2022-11-10T17:54:21.217Z,87.80
2022-11-10T17:56:53.160Z,87.75
2022-11-10T17:59:24.773Z,88.00
2022-11-10T18:01:59.107Z,88.04
2022-11-10T18:04:31.885Z,87.89
2022-11-10T18:07:04.030Z,87.99
2022-11-10T18:09:37.401Z,87.79
2022-11-10T18:12:09.432Z,87.72
2022-11-10T18:14:41.073Z,87.74
2022-11-10T18:17:13.048Z,88.02
2022-11-10T18:19:52.449Z,88.14
2022-11-10T18:22:31.350Z,88.08
2022-11-10T18:25:06.228Z,87.89
2022-11-10T18:27:39.213Z,88.22
2022-11-10T18:30:13.138Z,88.53
2022-11-10T18:32:44.931Z,88.51
2022-11-10T18:35:17.906Z,88.61
2022-11-10T18:37:51.234Z,89.07
2022-11-10T18:40:23.200Z,89.00
2022-11-10T18:43:02.991Z,88.95
2022-11-10T18:45:38.141Z,88.91
2022-11-10T18:48:11.171Z,89.00
2022-11-10T18:50:44.515Z,89.08
2022-11-10T18:53:16.565Z,89.30
2022-11-10T18:55:58.397Z,89.49
2022-11-10T18:58:31.216Z,89.25
2022-11-10T19:01:07.699Z,89.49
2022-11-10T19:03:42.840Z,89.62
2022-11-10T19:06:15.795Z,89.58
2022-11-10T19:08:51.761Z,89.39
2022-11-10T19:11:23.654Z,89.51
2022-11-10T19:13:55.761Z,89.55
2022-11-10T19:16:27.508Z,89.87
2022-11-10T19:19:00.329Z,90.11
2022-11-10T19:21:34.297Z,90.13
2022-11-10T19:24:10.211Z,90.36
2022-11-10T19:26:41.855Z,90.36
2022-11-10T19:29:24.181Z,90.44
2022-11-10T19:31:56.192Z,90.28
2022-11-10T19:34:31.842Z,90.01
2022-11-10T19:37:04.284Z,90.37
2022-11-10T19:39:43.575Z,90.23
2022-11-10T19:42:15.540Z,90.06
2022-11-10T19:44:49.692Z,90.15
2022-11-10T19:47:21.434Z,90.20
2022-11-10T19:49:54.413Z,90.20
2022-11-10T19:52:26.070Z,90.42
2022-11-10T19:54:58.751Z,90.46
2022-11-10T19:57:31.426Z,90.22
2022-11-10T20:00:05.131Z,90.16
2022-11-10T20:02:45.197Z,90.06
2022-11-10T20:05:18.254Z,90.13
2022-11-10T20:08:09.919Z,90.13
2022-11-10T20:10:46.945Z,90.26
2022-11-10T20:13:19.885Z,90.05
2022-11-10T20:15:52.951Z,89.92
2022-11-10T20:18:24.795Z,89.99
2022-11-10T20:20:56.898Z,89.98
2022-11-10T20:23:28.582Z,89.86
2022-11-10T20:26:10.372Z,89.87
2022-11-10T20:28:42.548Z,90.17
2022-11-10T20:31:20.500Z,90.08
2022-11-10T20:33:53.288Z,90.06
2022-11-10T20:36:28.113Z,90.09
2022-11-10T20:39:00.520Z,90.41
2022-11-10T20:41:33.663Z,90.34
2022-11-10T20:44:05.802Z,90.49
2022-11-10T20:46:53.999Z,90.95
2022-11-10T20:49:26.333Z,90.90
2022-11-10T20:52:02.128Z,90.66
2022-11-10T20:54:33.945Z,90.71
2022-11-10T20:57:05.737Z,90.75
2022-11-10T20:59:37.331Z,90.98
2022-11-10T21:02:10.471Z,90.94
2022-11-10T21:04:43.339Z,90.99
2022-11-10T21:07:15.472Z,90.95
2022-11-10T21:09:47.211Z,90.71
2022-11-10T21:12:36.588Z,90.80
2022-11-10T21:15:09.368Z,90.92
2022-11-10T21:17:44.121Z,91.03
2022-11-10T21:20:16.541Z,91.08
2022-11-10T21:22:49.165Z,91.22
2022-11-10T21:25:21.613Z,91.16
2022-11-10T21:27:53.180Z,91.21
2022-11-10T21:30:24.798Z,91.19
2022-11-10T21:32:56.814Z,91.52
2022-11-10T21:35:28.407Z,91.45
2022-11-10T21:38:01.688Z,91.37
2022-11-10T21:40:33.677Z,91.46
2022-11-10T21:43:06.102Z,91.49
2022-11-10T21:45:38.905Z,91.35
2022-11-10T21:48:11.245Z,91.47
2022-11-10T21:50:43.002Z,91.34
2022-11-10T21:53:14.618Z,91.43
2022-11-10T21:55:46.418Z,91.35
2022-11-10T21:58:18.554Z,91.63
2022-11-10T22:00:50.109Z,91.45
2022-11-10T22:03:22.133Z,91.68
2022-11-10T22:05:54.070Z,91.75
2022-11-10T22:08:25.816Z,91.85
2022-11-10T22:11:14.898Z,92.03
2022-11-10T22:14:05.203Z,92.20
2022-11-10T22:17:09.074Z,92.16
2022-11-10T22:19:41.260Z,92.50
2022-11-10T22:22:14.459Z,92.31
2022-11-10T22:24:46.538Z,92.43
2022-11-10T22:27:18.308Z,92.68
2022-11-10T22:29:50.327Z,92.37
2022-11-10T22:32:22.048Z,92.11
2022-11-10T22:34:54.048Z,92.21
2022-11-10T22:37:33.367Z,92.20
2022-11-10T22:40:23.339Z,92.02
2022-11-10T22:43:13.147Z,92.02
2022-11-10T22:45:48.135Z,92.17
2022-11-10T22:48:28.867Z,92.17
2022-11-10T22:51:01.213Z,92.15
2022-11-10T22:53:38.713Z,92.05
2022-11-10T22:56:11.392Z,92.12
2022-11-10T22:58:43.010Z,92.15
2022-11-10T23:01:15.480Z,92.26
2022-11-10T23:03:47.419Z,92.51
2022-11-10T23:06:19.171Z,92.47
2022-11-10T23:08:51.969Z,92.79
2022-11-10T23:11:25.547Z,92.94
2022-11-10T23:13:57.336Z,92.62
2022-11-10T23:16:30.657Z,92.78
2022-11-10T23:19:02.807Z,92.64
2022-11-10T23:21:34.631Z,92.96
2022-11-10T23:24:07.025Z,92.90
2022-11-10T23:26:38.911Z,92.89
2022-11-10T23:29:10.827Z,92.98
2022-11-10T23:31:43.144Z,93.41
2022-11-10T23:34:14.752Z,93.20
2022-11-10T23:36:47.089Z,93.25
2022-11-10T23:39:19.541Z,93.47
2022-11-10T23:41:51.665Z,93.20
2022-11-10T23:44:23.758Z,93.41
2022-11-10T23:46:55.854Z,93.26
2022-11-10T23:49:27.545Z,93.13
2022-11-10T23:51:59.228Z,93.18
2022-11-10T23:54:31.160Z,93.11
2022-11-10T23:57:03.464Z,92.98
2022-11-10T23:59:35.105Z,93.16
